createdAt,value
2022-09-26T00:00:38.954Z,0
2022-09-26T00:05:38.927Z,0
2022-09-26T00:10:38.995Z,0
2022-09-26T00:15:38.931Z,0
2022-09-26T00:20:38.951Z,0
2022-09-26T00:25:38.934Z,0
2022-09-26T00:30:39.010Z,0
2022-09-26T00:35:38.948Z,0
2022-09-26T00:40:38.992Z,0
2022-09-26T00:45:38.987Z,0
2022-09-26T00:50:38.941Z,0
2022-09-26T00:55:38.919Z,0
2022-09-26T01:00:42.193Z,0
2022-09-26T01:05:38.935Z,0
2022-09-26T01:10:39.038Z,0
2022-09-26T01:15:38.914Z,0
2022-09-26T01:20:38.907Z,0
2022-09-26T01:25:38.921Z,0
2022-09-26T01:30:39.017Z,0
2022-09-26T01:35:38.897Z,0
2022-09-26T01:40:39.042Z,0
2022-09-26T01:45:38.987Z,0
2022-09-26T01:50:39.051Z,0
2022-09-26T01:55:38.920Z,0
2022-09-26T02:00:38.922Z,0
2022-09-26T02:05:38.930Z,0
2022-09-26T02:10:38.961Z,0
2022-09-26T02:15:38.892Z,0
2022-09-26T02:20:38.899Z,0
2022-09-26T02:25:38.921Z,0
2022-09-26T02:30:38.902Z,0
2022-09-26T02:35:38.879Z,0
2022-09-26T02:40:38.979Z,0
2022-09-26T02:45:38.954Z,0
2022-09-26T02:50:38.916Z,0
2022-09-26T02:55:38.895Z,0
2022-09-26T03:00:38.879Z,0
2022-09-26T03:05:38.878Z,0
2022-09-26T03:10:38.936Z,0
2022-09-26T03:15:38.880Z,0
2022-09-26T03:20:38.887Z,0
2022-09-26T03:25:38.884Z,0
2022-09-26T03:30:38.941Z,0
2022-09-26T03:35:38.885Z,0
2022-09-26T03:40:38.946Z,0
2022-09-26T03:45:38.894Z,0
2022-09-26T03:50:38.912Z,0
2022-09-26T03:55:38.861Z,0
2022-09-26T04:00:38.913Z,0
2022-09-26T04:05:38.898Z,0
2022-09-26T04:10:38.928Z,0
2022-09-26T04:15:38.894Z,0
2022-09-26T04:20:38.880Z,0
2022-09-26T04:25:38.872Z,0
2022-09-26T04:30:38.905Z,0
2022-09-26T04:35:38.878Z,0
2022-09-26T04:40:42.635Z,0
2022-09-26T04:45:38.880Z,0
2022-09-26T04:50:38.984Z,0
2022-09-26T04:55:38.849Z,0
2022-09-26T05:00:38.932Z,0
2022-09-26T05:05:38.853Z,0
2022-09-26T05:10:38.887Z,0
2022-09-26T05:15:38.876Z,0
2022-09-26T05:20:39.127Z,0
2022-09-26T05:25:39.111Z,0
2022-09-26T05:30:39.213Z,2
2022-09-26T05:35:39.112Z,3
2022-09-26T05:40:39.163Z,10
2022-09-26T05:45:39.078Z,7
2022-09-26T05:50:42.884Z,14
2022-09-26T05:55:39.097Z,18
2022-09-26T06:00:39.148Z,26
2022-09-26T06:05:39.081Z,29
2022-09-26T06:10:39.123Z,32
2022-09-26T06:15:39.090Z,39
2022-09-26T06:20:39.100Z,32
2022-09-26T06:25:39.097Z,40
2022-09-26T06:30:39.195Z,59
2022-09-26T06:35:39.111Z,64
2022-09-26T06:40:39.185Z,69
2022-09-26T06:45:39.069Z,108
2022-09-26T06:50:39.102Z,134
2022-09-26T06:55:39.091Z,117
2022-09-26T07:00:39.210Z,113
2022-09-26T07:05:39.090Z,117
2022-09-26T07:10:39.164Z,126
2022-09-26T07:15:39.106Z,131
2022-09-26T07:20:39.076Z,135
2022-09-26T07:25:39.070Z,156
2022-09-26T07:30:39.090Z,159
2022-09-26T07:35:39.090Z,162
2022-09-26T07:40:39.112Z,208
2022-09-26T07:45:39.080Z,195
2022-09-26T07:50:39.090Z,209
2022-09-26T07:55:39.098Z,211
2022-09-26T08:00:39.065Z,208
2022-09-26T08:05:39.049Z,193
2022-09-26T08:10:39.095Z,221
2022-09-26T08:15:39.153Z,258
2022-09-26T08:20:39.091Z,236
2022-09-26T08:25:39.077Z,247
2022-09-26T08:30:39.122Z,267
2022-09-26T08:35:39.079Z,277
2022-09-26T08:40:39.136Z,315
2022-09-26T08:45:39.054Z,183
2022-09-26T08:50:39.076Z,120
2022-09-26T08:55:39.097Z,193
2022-09-26T09:00:39.091Z,247
2022-09-26T09:05:39.082Z,265
2022-09-26T09:10:39.092Z,206
2022-09-26T09:15:39.093Z,214
2022-09-26T09:20:39.055Z,207
2022-09-26T09:25:39.094Z,194
2022-09-26T09:30:39.061Z,180
2022-09-26T09:35:39.079Z,174
2022-09-26T09:40:39.122Z,191
2022-09-26T09:45:39.090Z,205
2022-09-26T09:50:39.099Z,315
2022-09-26T09:55:39.061Z,242
2022-09-26T10:00:39.069Z,265
2022-09-26T10:05:39.073Z,256
2022-09-26T10:10:39.086Z,201
2022-09-26T10:15:39.149Z,184
2022-09-26T10:20:39.044Z,158
2022-09-26T10:25:39.049Z,159
2022-09-26T10:30:39.102Z,198
2022-09-26T10:35:39.041Z,142
2022-09-26T10:40:39.111Z,149
2022-09-26T10:45:39.051Z,123
2022-09-26T10:50:39.086Z,118
2022-09-26T10:55:39.064Z,131
2022-09-26T11:00:39.058Z,134
2022-09-26T11:05:39.053Z,118
2022-09-26T11:10:39.313Z,71
2022-09-26T11:15:39.106Z,95
2022-09-26T11:20:39.046Z,117
2022-09-26T11:25:39.079Z,133
2022-09-26T11:30:39.088Z,138
2022-09-26T11:35:39.051Z,126
2022-09-26T11:40:39.105Z,109
2022-09-26T11:45:41.880Z,116
2022-09-26T11:50:39.052Z,126
2022-09-26T11:55:39.077Z,185
2022-09-26T12:00:39.044Z,135
2022-09-26T12:05:39.046Z,111
2022-09-26T12:10:39.091Z,114
2022-09-26T12:15:39.118Z,105
2022-09-26T12:20:39.043Z,109
2022-09-26T12:25:39.023Z,102
2022-09-26T12:30:39.134Z,112
2022-09-26T12:35:39.023Z,114
2022-09-26T12:40:39.095Z,117
2022-09-26T12:45:39.052Z,107
2022-09-26T12:50:39.047Z,106
2022-09-26T12:55:39.062Z,96
2022-09-26T13:00:39.017Z,75
2022-09-26T13:05:39.060Z,69
2022-09-26T13:10:39.045Z,73
2022-09-26T13:15:39.048Z,115
2022-09-26T13:20:39.055Z,118
2022-09-26T13:25:39.008Z,109
2022-09-26T13:30:39.059Z,116
2022-09-26T13:35:39.055Z,141
2022-09-26T13:40:39.087Z,142
2022-09-26T13:45:39.028Z,153
2022-09-26T13:50:39.088Z,142
2022-09-26T13:55:39.053Z,169
2022-09-26T14:00:39.055Z,216
2022-09-26T14:05:39.031Z,204
2022-09-26T14:10:39.051Z,122
2022-09-26T14:15:39.092Z,131
2022-09-26T14:20:39.015Z,125
2022-09-26T14:25:39.043Z,138
2022-09-26T14:30:39.088Z,115
2022-09-26T14:35:39.034Z,73
2022-09-26T14:40:39.104Z,69
2022-09-26T14:45:39.010Z,99
2022-09-26T14:50:39.019Z,107
2022-09-26T14:55:39.030Z,121
2022-09-26T15:00:39.027Z,118
2022-09-26T15:05:39.005Z,94
2022-09-26T15:10:39.027Z,79
2022-09-26T15:15:39.055Z,65
2022-09-26T15:20:39.010Z,70
2022-09-26T15:25:38.996Z,126
2022-09-26T15:30:39.050Z,120
2022-09-26T15:35:39.005Z,72
2022-09-26T15:40:39.072Z,41
2022-09-26T15:45:38.986Z,25
2022-09-26T15:50:39.006Z,17
2022-09-26T15:55:39.000Z,13
2022-09-26T16:00:38.996Z,12
2022-09-26T16:05:38.988Z,12
2022-09-26T16:10:39.008Z,11
2022-09-26T16:15:39.055Z,14
2022-09-26T16:20:38.984Z,11
2022-09-26T16:25:38.983Z,16
2022-09-26T16:30:38.996Z,13
2022-09-26T16:35:38.947Z,13
2022-09-26T16:40:39.054Z,3
2022-09-26T16:45:38.954Z,0
2022-09-26T16:50:38.990Z,0
2022-09-26T16:55:38.959Z,0
2022-09-26T17:00:38.960Z,0
2022-09-26T17:05:38.953Z,0
2022-09-26T17:10:39.012Z,0
2022-09-26T17:15:38.994Z,0
2022-09-26T17:20:38.970Z,0
2022-09-26T17:25:38.957Z,0
2022-09-26T17:30:39.020Z,0
2022-09-26T17:34:47.395Z,0
2022-09-26T17:35:07.951Z,0
2022-09-26T17:35:38.963Z,0
2022-09-26T17:40:39.017Z,0
2022-09-26T17:45:38.944Z,0
2022-09-26T17:50:38.956Z,0
2022-09-26T17:55:38.969Z,0
2022-09-26T18:00:38.956Z,0
2022-09-26T18:05:38.941Z,0
2022-09-26T18:10:38.945Z,0
2022-09-26T18:15:39.022Z,0
2022-09-26T18:20:38.926Z,0
2022-09-26T18:25:38.964Z,0
2022-09-26T18:30:38.952Z,0
2022-09-26T18:35:38.926Z,0
2022-09-26T18:40:39.602Z,0
2022-09-26T18:45:39.197Z,0
2022-09-26T18:50:39.202Z,0
2022-09-26T18:55:39.145Z,0
2022-09-26T19:00:39.144Z,0
2022-09-26T19:05:39.192Z,0
2022-09-26T19:10:39.206Z,0
2022-09-26T19:15:39.213Z,0
2022-09-26T19:20:39.162Z,0
2022-09-26T19:25:39.163Z,0
2022-09-26T19:30:39.234Z,0
2022-09-26T19:35:39.142Z,0
2022-09-26T19:40:39.220Z,0
2022-09-26T19:45:39.157Z,0
2022-09-26T19:50:39.194Z,0
2022-09-26T19:55:39.110Z,0
2022-09-26T20:00:39.154Z,0
2022-09-26T20:05:39.115Z,0
2022-09-26T20:10:39.153Z,0
2022-09-26T20:15:39.127Z,0
2022-09-26T20:20:39.159Z,0
2022-09-26T20:25:39.108Z,0
2022-09-26T20:30:39.189Z,0
2022-09-26T20:35:39.156Z,0
2022-09-26T20:40:39.174Z,0
2022-09-26T20:45:39.137Z,0
2022-09-26T20:50:39.124Z,0
2022-09-26T20:55:43.304Z,0
2022-09-26T21:00:39.128Z,0
2022-09-26T21:05:39.161Z,0
2022-09-26T21:10:39.167Z,0
2022-09-26T21:15:39.121Z,0
2022-09-26T21:20:39.123Z,0
2022-09-26T21:25:39.116Z,0
2022-09-26T21:30:39.178Z,0
2022-09-26T21:35:39.103Z,0
2022-09-26T21:40:39.152Z,0
2022-09-26T21:45:39.147Z,0
2022-09-26T21:50:39.127Z,0
2022-09-26T21:55:39.114Z,0
2022-09-26T22:00:39.124Z,0
2022-09-26T22:05:39.103Z,0
2022-09-26T22:10:39.138Z,0
2022-09-26T22:15:39.094Z,0
2022-09-26T22:20:39.118Z,0
2022-09-26T22:25:42.751Z,0
2022-09-26T22:30:39.189Z,0
2022-09-26T22:35:39.095Z,0
2022-09-26T22:40:39.170Z,0
2022-09-26T22:45:39.094Z,0
2022-09-26T22:50:39.125Z,0
2022-09-26T22:55:39.123Z,0
2022-09-26T23:00:39.087Z,0
2022-09-26T23:05:39.103Z,0
2022-09-26T23:10:39.124Z,0
2022-09-26T23:15:39.117Z,0
2022-09-26T23:20:39.085Z,0
2022-09-26T23:25:39.080Z,0
2022-09-26T23:30:39.171Z,0
2022-09-26T23:35:39.061Z,0
2022-09-26T23:40:39.176Z,0
2022-09-26T23:45:39.133Z,0
2022-09-26T23:50:39.101Z,0
2022-09-26T23:55:39.099Z,0
